sensor_id;sensor_type;location;lat;lon;timestamp;P1;durP1;ratioP1;P2;durP2;ratioP2
78885;SDS011;68269;52.514;5.722;2023-07-16T00:00:07;2.53;;;0.50;;
78885;SDS011;68269;52.514;5.722;2023-07-16T00:02:40;9.63;;;1.02;;
78885;SDS011;68269;52.514;5.722;2023-07-16T00:05:10;8.52;;;0.98;;
78885;SDS011;68269;52.514;5.722;2023-07-16T00:07:39;4.40;;;0.47;;
78885;SDS011;68269;52.514;5.722;2023-07-16T00:10:09;6.15;;;0.63;;
78885;SDS011;68269;52.514;5.722;2023-07-16T00:12:38;8.00;;;0.82;;
78885;SDS011;68269;52.514;5.722;2023-07-16T00:15:08;5.05;;;0.70;;
78885;SDS011;68269;52.514;5.722;2023-07-16T00:17:40;5.00;;;1.10;;
78885;SDS011;68269;52.514;5.722;2023-07-16T00:20:10;4.32;;;0.65;;
78885;SDS011;68269;52.514;5.722;2023-07-16T00:22:40;4.13;;;0.68;;
78885;SDS011;68269;52.514;5.722;2023-07-16T00:25:09;3.55;;;0.45;;
78885;SDS011;68269;52.514;5.722;2023-07-16T00:27:38;6.70;;;0.77;;
78885;SDS011;68269;52.514;5.722;2023-07-16T00:30:08;3.97;;;0.73;;
78885;SDS011;68269;52.514;5.722;2023-07-16T00:32:41;6.35;;;0.88;;
78885;SDS011;68269;52.514;5.722;2023-07-16T00:35:10;7.38;;;1.10;;
78885;SDS011;68269;52.514;5.722;2023-07-16T00:37:39;5.05;;;0.70;;
78885;SDS011;68269;52.514;5.722;2023-07-16T00:40:09;5.78;;;1.00;;
78885;SDS011;68269;52.514;5.722;2023-07-16T00:42:38;6.78;;;0.90;;
78885;SDS011;68269;52.514;5.722;2023-07-16T00:45:09;3.40;;;0.63;;
78885;SDS011;68269;52.514;5.722;2023-07-16T00:47:44;6.90;;;1.10;;
78885;SDS011;68269;52.514;5.722;2023-07-16T00:50:14;7.25;;;0.82;;
78885;SDS011;68269;52.514;5.722;2023-07-16T00:52:43;7.63;;;1.13;;
78885;SDS011;68269;52.514;5.722;2023-07-16T00:55:12;5.53;;;0.90;;
78885;SDS011;68269;52.514;5.722;2023-07-16T00:57:42;5.07;;;0.80;;
78885;SDS011;68269;52.514;5.722;2023-07-16T01:00:12;6.75;;;1.10;;
78885;SDS011;68269;52.514;5.722;2023-07-16T01:02:45;7.05;;;0.60;;
78885;SDS011;68269;52.514;5.722;2023-07-16T01:05:14;4.57;;;0.93;;
78885;SDS011;68269;52.514;5.722;2023-07-16T01:07:47;4.18;;;0.70;;
78885;SDS011;68269;52.514;5.722;2023-07-16T01:10:22;6.90;;;1.35;;
78885;SDS011;68269;52.514;5.722;2023-07-16T01:12:53;6.75;;;1.15;;
78885;SDS011;68269;52.514;5.722;2023-07-16T01:15:24;6.10;;;0.98;;
78885;SDS011;68269;52.514;5.722;2023-07-16T01:17:56;7.20;;;1.05;;
78885;SDS011;68269;52.514;5.722;2023-07-16T01:20:26;4.85;;;1.05;;
78885;SDS011;68269;52.514;5.722;2023-07-16T01:23:06;4.68;;;0.80;;
78885;SDS011;68269;52.514;5.722;2023-07-16T01:25:54;6.35;;;1.33;;
78885;SDS011;68269;52.514;5.722;2023-07-16T01:28:44;7.40;;;1.20;;
78885;SDS011;68269;52.514;5.722;2023-07-16T01:31:29;8.65;;;1.00;;
78885;SDS011;68269;52.514;5.722;2023-07-16T01:33:59;7.28;;;1.08;;
78885;SDS011;68269;52.514;5.722;2023-07-16T01:36:29;6.53;;;1.00;;
78885;SDS011;68269;52.514;5.722;2023-07-16T01:39:01;6.32;;;1.30;;
78885;SDS011;68269;52.514;5.722;2023-07-16T01:41:31;8.40;;;1.10;;
78885;SDS011;68269;52.514;5.722;2023-07-16T01:44:00;5.40;;;0.85;;
78885;SDS011;68269;52.514;5.722;2023-07-16T01:46:32;6.97;;;1.20;;
78885;SDS011;68269;52.514;5.722;2023-07-16T01:49:02;4.97;;;0.93;;
78885;SDS011;68269;52.514;5.722;2023-07-16T01:51:31;8.35;;;1.13;;
78885;SDS011;68269;52.514;5.722;2023-07-16T01:54:00;6.72;;;0.90;;
78885;SDS011;68269;52.514;5.722;2023-07-16T01:56:30;6.03;;;1.08;;
78885;SDS011;68269;52.514;5.722;2023-07-16T01:58:59;5.30;;;0.93;;
78885;SDS011;68269;52.514;5.722;2023-07-16T02:01:32;7.55;;;1.15;;
78885;SDS011;68269;52.514;5.722;2023-07-16T02:04:01;7.25;;;1.08;;
78885;SDS011;68269;52.514;5.722;2023-07-16T02:06:33;8.45;;;1.20;;
78885;SDS011;68269;52.514;5.722;2023-07-16T02:09:02;8.73;;;1.38;;
78885;SDS011;68269;52.514;5.722;2023-07-16T02:11:31;5.90;;;1.27;;
78885;SDS011;68269;52.514;5.722;2023-07-16T02:14:01;3.83;;;0.80;;
78885;SDS011;68269;52.514;5.722;2023-07-16T02:16:33;7.75;;;1.42;;
78885;SDS011;68269;52.514;5.722;2023-07-16T02:19:02;6.95;;;1.00;;
78885;SDS011;68269;52.514;5.722;2023-07-16T02:21:31;6.95;;;1.30;;
78885;SDS011;68269;52.514;5.722;2023-07-16T02:24:01;4.57;;;1.00;;
78885;SDS011;68269;52.514;5.722;2023-07-16T02:26:30;6.90;;;1.25;;
78885;SDS011;68269;52.514;5.722;2023-07-16T02:28:59;5.82;;;1.15;;
78885;SDS011;68269;52.514;5.722;2023-07-16T02:31:28;6.22;;;1.30;;
78885;SDS011;68269;52.514;5.722;2023-07-16T02:34:00;7.18;;;1.13;;
78885;SDS011;68269;52.514;5.722;2023-07-16T02:36:32;11.00;;;1.60;;
78885;SDS011;68269;52.514;5.722;2023-07-16T02:39:02;5.60;;;1.30;;
78885;SDS011;68269;52.514;5.722;2023-07-16T02:41:31;7.50;;;1.38;;
78885;SDS011;68269;52.514;5.722;2023-07-16T02:44:01;6.90;;;1.60;;
78885;SDS011;68269;52.514;5.722;2023-07-16T02:46:33;8.40;;;1.60;;
78885;SDS011;68269;52.514;5.722;2023-07-16T02:49:05;7.97;;;1.48;;
78885;SDS011;68269;52.514;5.722;2023-07-16T02:51:35;9.77;;;1.65;;
78885;SDS011;68269;52.514;5.722;2023-07-16T02:54:04;7.82;;;1.65;;
78885;SDS011;68269;52.514;5.722;2023-07-16T02:56:34;7.28;;;1.55;;
78885;SDS011;68269;52.514;5.722;2023-07-16T02:59:03;6.50;;;1.60;;
78885;SDS011;68269;52.514;5.722;2023-07-16T03:01:32;7.60;;;1.40;;
78885;SDS011;68269;52.514;5.722;2023-07-16T03:04:04;8.98;;;1.63;;
78885;SDS011;68269;52.514;5.722;2023-07-16T03:06:34;9.68;;;1.55;;
78885;SDS011;68269;52.514;5.722;2023-07-16T03:09:03;8.70;;;1.48;;
78885;SDS011;68269;52.514;5.722;2023-07-16T03:11:32;7.88;;;1.25;;
78885;SDS011;68269;52.514;5.722;2023-07-16T03:14:02;8.40;;;1.50;;
78885;SDS011;68269;52.514;5.722;2023-07-16T03:16:31;7.75;;;1.33;;
78885;SDS011;68269;52.514;5.722;2023-07-16T03:19:00;5.93;;;1.25;;
78885;SDS011;68269;52.514;5.722;2023-07-16T03:21:32;6.72;;;1.50;;
78885;SDS011;68269;52.514;5.722;2023-07-16T03:24:02;6.80;;;1.48;;
78885;SDS011;68269;52.514;5.722;2023-07-16T03:26:31;10.88;;;1.80;;
78885;SDS011;68269;52.514;5.722;2023-07-16T03:29:01;7.82;;;1.60;;
78885;SDS011;68269;52.514;5.722;2023-07-16T03:31:31;8.18;;;1.70;;
78885;SDS011;68269;52.514;5.722;2023-07-16T03:34:00;9.93;;;1.80;;
78885;SDS011;68269;52.514;5.722;2023-07-16T03:36:33;10.52;;;1.95;;
78885;SDS011;68269;52.514;5.722;2023-07-16T03:39:03;12.07;;;1.55;;
78885;SDS011;68269;52.514;5.722;2023-07-16T03:41:34;10.93;;;1.80;;
78885;SDS011;68269;52.514;5.722;2023-07-16T03:44:03;7.95;;;1.25;;
78885;SDS011;68269;52.514;5.722;2023-07-16T03:46:35;6.95;;;1.50;;
78885;SDS011;68269;52.514;5.722;2023-07-16T03:49:06;6.95;;;1.38;;
78885;SDS011;68269;52.514;5.722;2023-07-16T03:51:38;8.00;;;1.40;;
78885;SDS011;68269;52.514;5.722;2023-07-16T03:54:09;7.32;;;2.08;;
78885;SDS011;68269;52.514;5.722;2023-07-16T03:56:38;8.15;;;1.27;;
78885;SDS011;68269;52.514;5.722;2023-07-16T03:59:08;10.77;;;1.88;;
78885;SDS011;68269;52.514;5.722;2023-07-16T04:01:37;6.50;;;1.23;;
78885;SDS011;68269;52.514;5.722;2023-07-16T04:04:06;6.90;;;1.73;;
78885;SDS011;68269;52.514;5.722;2023-07-16T04:06:39;7.78;;;1.58;;
78885;SDS011;68269;52.514;5.722;2023-07-16T04:09:08;7.97;;;1.60;;
78885;SDS011;68269;52.514;5.722;2023-07-16T04:11:37;7.90;;;1.42;;
78885;SDS011;68269;52.514;5.722;2023-07-16T04:14:07;7.70;;;1.80;;
78885;SDS011;68269;52.514;5.722;2023-07-16T04:16:36;8.63;;;1.50;;
78885;SDS011;68269;52.514;5.722;2023-07-16T04:19:06;8.05;;;1.33;;
78885;SDS011;68269;52.514;5.722;2023-07-16T04:21:35;6.93;;;1.48;;
78885;SDS011;68269;52.514;5.722;2023-07-16T04:24:07;6.07;;;1.33;;
78885;SDS011;68269;52.514;5.722;2023-07-16T04:26:37;8.50;;;1.40;;
78885;SDS011;68269;52.514;5.722;2023-07-16T04:29:06;7.65;;;1.40;;
78885;SDS011;68269;52.514;5.722;2023-07-16T04:31:35;10.10;;;1.73;;
78885;SDS011;68269;52.514;5.722;2023-07-16T04:34:04;8.02;;;1.30;;
78885;SDS011;68269;52.514;5.722;2023-07-16T04:36:34;6.90;;;1.20;;
78885;SDS011;68269;52.514;5.722;2023-07-16T04:39:03;8.05;;;1.23;;
78885;SDS011;68269;52.514;5.722;2023-07-16T04:41:35;4.78;;;1.13;;
78885;SDS011;68269;52.514;5.722;2023-07-16T04:44:05;9.70;;;1.75;;
78885;SDS011;68269;52.514;5.722;2023-07-16T04:46:34;7.82;;;1.48;;
78885;SDS011;68269;52.514;5.722;2023-07-16T04:49:04;7.28;;;1.60;;
78885;SDS011;68269;52.514;5.722;2023-07-16T04:51:33;8.45;;;1.60;;
78885;SDS011;68269;52.514;5.722;2023-07-16T04:54:02;6.35;;;1.10;;
78885;SDS011;68269;52.514;5.722;2023-07-16T04:56:34;8.57;;;1.30;;
78885;SDS011;68269;52.514;5.722;2023-07-16T04:59:04;6.60;;;1.35;;
78885;SDS011;68269;52.514;5.722;2023-07-16T05:01:33;5.38;;;1.25;;
78885;SDS011;68269;52.514;5.722;2023-07-16T05:04:02;6.38;;;1.73;;
78885;SDS011;68269;52.514;5.722;2023-07-16T05:06:33;7.30;;;1.40;;
78885;SDS011;68269;52.514;5.722;2023-07-16T05:09:02;7.93;;;1.45;;
78885;SDS011;68269;52.514;5.722;2023-07-16T05:11:34;9.48;;;1.88;;
78885;SDS011;68269;52.514;5.722;2023-07-16T05:14:04;5.60;;;1.25;;
78885;SDS011;68269;52.514;5.722;2023-07-16T05:16:33;8.30;;;1.60;;
78885;SDS011;68269;52.514;5.722;2023-07-16T05:19:02;5.40;;;1.38;;
78885;SDS011;68269;52.514;5.722;2023-07-16T05:21:32;6.72;;;1.58;;
78885;SDS011;68269;52.514;5.722;2023-07-16T05:24:01;9.93;;;1.30;;
78885;SDS011;68269;52.514;5.722;2023-07-16T05:26:30;7.57;;;1.50;;
78885;SDS011;68269;52.514;5.722;2023-07-16T05:29:02;5.78;;;1.50;;
78885;SDS011;68269;52.514;5.722;2023-07-16T05:31:32;9.18;;;1.73;;
78885;SDS011;68269;52.514;5.722;2023-07-16T05:34:01;8.23;;;1.20;;
78885;SDS011;68269;52.514;5.722;2023-07-16T05:36:30;6.50;;;1.67;;
78885;SDS011;68269;52.514;5.722;2023-07-16T05:38:59;8.90;;;1.60;;
78885;SDS011;68269;52.514;5.722;2023-07-16T05:41:29;7.30;;;1.52;;
78885;SDS011;68269;52.514;5.722;2023-07-16T05:43:58;7.80;;;2.00;;
78885;SDS011;68269;52.514;5.722;2023-07-16T05:46:30;7.60;;;1.88;;
78885;SDS011;68269;52.514;5.722;2023-07-16T05:48:59;10.13;;;2.10;;
78885;SDS011;68269;52.514;5.722;2023-07-16T05:51:28;7.60;;;1.77;;
78885;SDS011;68269;52.514;5.722;2023-07-16T05:53:58;9.95;;;1.92;;
78885;SDS011;68269;52.514;5.722;2023-07-16T05:56:28;8.90;;;1.92;;
78885;SDS011;68269;52.514;5.722;2023-07-16T05:58:57;6.90;;;1.42;;
78885;SDS011;68269;52.514;5.722;2023-07-16T06:01:26;9.00;;;1.70;;
78885;SDS011;68269;52.514;5.722;2023-07-16T06:03:58;7.65;;;1.65;;
78885;SDS011;68269;52.514;5.722;2023-07-16T06:06:28;8.77;;;1.42;;
78885;SDS011;68269;52.514;5.722;2023-07-16T06:08:58;9.60;;;1.60;;
78885;SDS011;68269;52.514;5.722;2023-07-16T06:11:27;8.98;;;1.92;;
78885;SDS011;68269;52.514;5.722;2023-07-16T06:13:57;8.88;;;2.10;;
78885;SDS011;68269;52.514;5.722;2023-07-16T06:16:26;7.15;;;1.83;;
78885;SDS011;68269;52.514;5.722;2023-07-16T06:18:58;8.50;;;1.70;;
78885;SDS011;68269;52.514;5.722;2023-07-16T06:21:27;8.13;;;1.70;;
78885;SDS011;68269;52.514;5.722;2023-07-16T06:23:56;8.80;;;1.80;;
78885;SDS011;68269;52.514;5.722;2023-07-16T06:26:25;10.52;;;2.30;;
78885;SDS011;68269;52.514;5.722;2023-07-16T06:28:55;8.73;;;1.73;;
78885;SDS011;68269;52.514;5.722;2023-07-16T06:31:24;10.27;;;2.05;;
78885;SDS011;68269;52.514;5.722;2023-07-16T06:33:53;8.68;;;1.90;;
78885;SDS011;68269;52.514;5.722;2023-07-16T06:36:25;9.52;;;2.22;;
78885;SDS011;68269;52.514;5.722;2023-07-16T06:38:54;9.98;;;1.90;;
78885;SDS011;68269;52.514;5.722;2023-07-16T06:41:25;6.95;;;1.60;;
78885;SDS011;68269;52.514;5.722;2023-07-16T06:43:56;8.27;;;1.90;;
78885;SDS011;68269;52.514;5.722;2023-07-16T06:46:25;6.72;;;1.60;;
78885;SDS011;68269;52.514;5.722;2023-07-16T06:48:54;9.75;;;2.15;;
78885;SDS011;68269;52.514;5.722;2023-07-16T06:51:26;9.70;;;2.03;;
78885;SDS011;68269;52.514;5.722;2023-07-16T06:53:57;7.38;;;1.70;;
78885;SDS011;68269;52.514;5.722;2023-07-16T06:56:26;8.70;;;2.10;;
78885;SDS011;68269;52.514;5.722;2023-07-16T06:58:55;7.13;;;1.63;;
78885;SDS011;68269;52.514;5.722;2023-07-16T07:01:24;7.10;;;1.80;;
78885;SDS011;68269;52.514;5.722;2023-07-16T07:03:54;6.43;;;1.85;;
78885;SDS011;68269;52.514;5.722;2023-07-16T07:06:26;8.10;;;1.85;;
78885;SDS011;68269;52.514;5.722;2023-07-16T07:08:55;7.40;;;1.67;;
78885;SDS011;68269;52.514;5.722;2023-07-16T07:11:25;8.48;;;2.03;;
78885;SDS011;68269;52.514;5.722;2023-07-16T07:13:54;9.40;;;1.90;;
78885;SDS011;68269;52.514;5.722;2023-07-16T07:16:23;8.35;;;1.67;;
78885;SDS011;68269;52.514;5.722;2023-07-16T07:18:53;11.35;;;1.95;;
78885;SDS011;68269;52.514;5.722;2023-07-16T07:21:22;7.93;;;1.40;;
78885;SDS011;68269;52.514;5.722;2023-07-16T07:23:54;7.05;;;1.75;;
78885;SDS011;68269;52.514;5.722;2023-07-16T07:26:23;10.23;;;2.22;;
78885;SDS011;68269;52.514;5.722;2023-07-16T07:28:53;11.98;;;1.75;;
78885;SDS011;68269;52.514;5.722;2023-07-16T07:31:22;11.48;;;1.75;;
78885;SDS011;68269;52.514;5.722;2023-07-16T07:33:51;6.80;;;1.83;;
78885;SDS011;68269;52.514;5.722;2023-07-16T07:36:23;7.60;;;2.00;;
78885;SDS011;68269;52.514;5.722;2023-07-16T07:38:54;12.23;;;2.22;;
78885;SDS011;68269;52.514;5.722;2023-07-16T07:41:24;10.07;;;2.10;;
78885;SDS011;68269;52.514;5.722;2023-07-16T07:43:53;10.82;;;2.00;;
78885;SDS011;68269;52.514;5.722;2023-07-16T07:46:22;11.52;;;2.20;;
78885;SDS011;68269;52.514;5.722;2023-07-16T07:48:52;12.68;;;2.25;;
78885;SDS011;68269;52.514;5.722;2023-07-16T07:51:21;11.82;;;2.25;;
78885;SDS011;68269;52.514;5.722;2023-07-16T07:53:51;9.20;;;1.73;;
78885;SDS011;68269;52.514;5.722;2023-07-16T07:56:23;7.07;;;1.98;;
78885;SDS011;68269;52.514;5.722;2023-07-16T07:58:52;8.13;;;1.90;;
78885;SDS011;68269;52.514;5.722;2023-07-16T08:01:21;8.10;;;1.88;;
78885;SDS011;68269;52.514;5.722;2023-07-16T08:03:51;8.90;;;1.73;;
78885;SDS011;68269;52.514;5.722;2023-07-16T08:06:20;7.68;;;2.00;;
78885;SDS011;68269;52.514;5.722;2023-07-16T08:08:49;6.40;;;1.40;;
78885;SDS011;68269;52.514;5.722;2023-07-16T08:11:18;7.07;;;1.60;;
78885;SDS011;68269;52.514;5.722;2023-07-16T08:13:50;8.73;;;2.08;;
78885;SDS011;68269;52.514;5.722;2023-07-16T08:16:19;12.70;;;2.22;;
78885;SDS011;68269;52.514;5.722;2023-07-16T08:18:52;8.07;;;2.28;;
78885;SDS011;68269;52.514;5.722;2023-07-16T08:21:21;8.82;;;1.70;;
78885;SDS011;68269;52.514;5.722;2023-07-16T08:23:51;9.20;;;1.75;;
78885;SDS011;68269;52.514;5.722;2023-07-16T08:26:20;9.98;;;1.88;;
78885;SDS011;68269;52.514;5.722;2023-07-16T08:28:52;8.38;;;1.88;;
78885;SDS011;68269;52.514;5.722;2023-07-16T08:31:22;6.97;;;1.60;;
78885;SDS011;68269;52.514;5.722;2023-07-16T08:33:51;8.82;;;2.13;;
78885;SDS011;68269;52.514;5.722;2023-07-16T08:36:20;9.30;;;1.65;;
78885;SDS011;68269;52.514;5.722;2023-07-16T08:38:50;8.85;;;1.90;;
78885;SDS011;68269;52.514;5.722;2023-07-16T08:41:19;8.30;;;1.88;;
78885;SDS011;68269;52.514;5.722;2023-07-16T08:43:53;8.13;;;1.90;;
78885;SDS011;68269;52.514;5.722;2023-07-16T08:48:52;8.50;;;2.10;;
78885;SDS011;68269;52.514;5.722;2023-07-16T08:51:22;10.18;;;2.63;;
78885;SDS011;68269;52.514;5.722;2023-07-16T08:53:53;6.50;;;1.75;;
78885;SDS011;68269;52.514;5.722;2023-07-16T08:56:22;8.73;;;2.00;;
78885;SDS011;68269;52.514;5.722;2023-07-16T08:58:55;10.27;;;2.30;;
78885;SDS011;68269;52.514;5.722;2023-07-16T09:01:25;6.35;;;1.75;;
78885;SDS011;68269;52.514;5.722;2023-07-16T09:03:56;9.32;;;2.13;;
78885;SDS011;68269;52.514;5.722;2023-07-16T09:06:25;8.82;;;2.28;;
78885;SDS011;68269;52.514;5.722;2023-07-16T09:08:56;6.63;;;1.85;;
78885;SDS011;68269;52.514;5.722;2023-07-16T09:11:25;9.18;;;1.80;;
78885;SDS011;68269;52.514;5.722;2023-07-16T09:13:57;6.50;;;1.63;;
78885;SDS011;68269;52.514;5.722;2023-07-16T09:16:32;7.28;;;1.73;;
78885;SDS011;68269;52.514;5.722;2023-07-16T09:19:05;9.93;;;2.17;;
78885;SDS011;68269;52.514;5.722;2023-07-16T09:21:36;6.82;;;1.70;;
78885;SDS011;68269;52.514;5.722;2023-07-16T09:24:06;8.00;;;1.73;;
78885;SDS011;68269;52.514;5.722;2023-07-16T09:26:36;9.90;;;2.13;;
78885;SDS011;68269;52.514;5.722;2023-07-16T09:29:09;6.63;;;1.70;;
78885;SDS011;68269;52.514;5.722;2023-07-16T09:31:39;7.93;;;1.95;;
78885;SDS011;68269;52.514;5.722;2023-07-16T09:34:21;8.70;;;1.73;;
78885;SDS011;68269;52.514;5.722;2023-07-16T09:36:50;10.52;;;2.33;;
78885;SDS011;68269;52.514;5.722;2023-07-16T09:39:20;9.40;;;1.80;;
78885;SDS011;68269;52.514;5.722;2023-07-16T09:41:49;9.40;;;2.50;;
78885;SDS011;68269;52.514;5.722;2023-07-16T09:44:22;8.38;;;1.70;;
78885;SDS011;68269;52.514;5.722;2023-07-16T09:46:51;7.30;;;1.63;;
78885;SDS011;68269;52.514;5.722;2023-07-16T09:49:20;8.70;;;1.80;;
78885;SDS011;68269;52.514;5.722;2023-07-16T09:51:49;8.88;;;1.70;;
78885;SDS011;68269;52.514;5.722;2023-07-16T09:54:25;6.55;;;1.73;;
78885;SDS011;68269;52.514;5.722;2023-07-16T09:56:56;6.13;;;1.50;;
78885;SDS011;68269;52.514;5.722;2023-07-16T09:59:30;8.50;;;1.70;;
78885;SDS011;68269;52.514;5.722;2023-07-16T10:02:02;7.28;;;1.98;;
78885;SDS011;68269;52.514;5.722;2023-07-16T10:04:37;7.68;;;2.00;;
78885;SDS011;68269;52.514;5.722;2023-07-16T10:07:17;9.50;;;2.30;;
78885;SDS011;68269;52.514;5.722;2023-07-16T10:09:52;7.68;;;1.92;;
78885;SDS011;68269;52.514;5.722;2023-07-16T10:12:23;9.00;;;1.77;;
78885;SDS011;68269;52.514;5.722;2023-07-16T10:14:56;7.28;;;1.90;;
78885;SDS011;68269;52.514;5.722;2023-07-16T10:17:29;7.25;;;1.85;;
78885;SDS011;68269;52.514;5.722;2023-07-16T10:19:59;9.68;;;2.55;;
78885;SDS011;68269;52.514;5.722;2023-07-16T10:22:34;8.20;;;2.08;;
78885;SDS011;68269;52.514;5.722;2023-07-16T10:25:08;10.63;;;2.40;;
78885;SDS011;68269;52.514;5.722;2023-07-16T10:27:39;8.38;;;2.15;;
78885;SDS011;68269;52.514;5.722;2023-07-16T10:30:11;10.02;;;1.90;;
78885;SDS011;68269;52.514;5.722;2023-07-16T10:32:40;8.70;;;2.42;;
78885;SDS011;68269;52.514;5.722;2023-07-16T10:35:10;7.70;;;1.90;;
78885;SDS011;68269;52.514;5.722;2023-07-16T10:37:39;8.27;;;2.15;;
78885;SDS011;68269;52.514;5.722;2023-07-16T10:40:09;11.52;;;2.20;;
78885;SDS011;68269;52.514;5.722;2023-07-16T10:42:40;9.95;;;1.63;;
78885;SDS011;68269;52.514;5.722;2023-07-16T10:45:14;8.13;;;1.98;;
78885;SDS011;68269;52.514;5.722;2023-07-16T10:47:50;10.43;;;2.67;;
78885;SDS011;68269;52.514;5.722;2023-07-16T10:50:21;7.68;;;2.00;;
78885;SDS011;68269;52.514;5.722;2023-07-16T10:52:51;7.38;;;2.00;;
78885;SDS011;68269;52.514;5.722;2023-07-16T10:55:21;9.57;;;2.30;;
78885;SDS011;68269;52.514;5.722;2023-07-16T10:57:51;9.93;;;2.10;;
78885;SDS011;68269;52.514;5.722;2023-07-16T11:00:23;7.07;;;1.92;;
78885;SDS011;68269;52.514;5.722;2023-07-16T11:02:52;7.68;;;1.90;;
78885;SDS011;68269;52.514;5.722;2023-07-16T11:05:22;9.10;;;1.88;;
78885;SDS011;68269;52.514;5.722;2023-07-16T11:07:51;8.13;;;1.70;;
78885;SDS011;68269;52.514;5.722;2023-07-16T11:10:20;8.52;;;1.67;;
78885;SDS011;68269;52.514;5.722;2023-07-16T11:12:51;10.13;;;2.15;;
78885;SDS011;68269;52.514;5.722;2023-07-16T11:15:32;7.32;;;1.48;;
78885;SDS011;68269;52.514;5.722;2023-07-16T11:18:05;7.07;;;1.65;;
78885;SDS011;68269;52.514;5.722;2023-07-16T11:20:34;9.35;;;1.85;;
78885;SDS011;68269;52.514;5.722;2023-07-16T11:23:03;11.90;;;1.77;;
78885;SDS011;68269;52.514;5.722;2023-07-16T11:25:33;10.45;;;2.00;;
78885;SDS011;68269;52.514;5.722;2023-07-16T11:28:02;9.60;;;2.33;;
78885;SDS011;68269;52.514;5.722;2023-07-16T11:30:35;8.73;;;1.92;;
78885;SDS011;68269;52.514;5.722;2023-07-16T11:33:09;8.25;;;2.33;;
78885;SDS011;68269;52.514;5.722;2023-07-16T11:35:39;9.63;;;2.08;;
78885;SDS011;68269;52.514;5.722;2023-07-16T11:38:08;9.93;;;2.58;;
78885;SDS011;68269;52.514;5.722;2023-07-16T11:40:38;7.25;;;1.95;;
78885;SDS011;68269;52.514;5.722;2023-07-16T11:43:08;7.35;;;2.15;;
78885;SDS011;68269;52.514;5.722;2023-07-16T11:45:46;7.88;;;1.77;;
78885;SDS011;68269;52.514;5.722;2023-07-16T11:50:46;6.28;;;1.73;;
78885;SDS011;68269;52.514;5.722;2023-07-16T11:53:15;6.57;;;1.75;;
78885;SDS011;68269;52.514;5.722;2023-07-16T11:55:45;6.95;;;1.67;;
78885;SDS011;68269;52.514;5.722;2023-07-16T11:58:15;8.15;;;1.65;;
78885;SDS011;68269;52.514;5.722;2023-07-16T12:00:46;6.18;;;1.50;;
78885;SDS011;68269;52.514;5.722;2023-07-16T12:05:45;6.40;;;1.20;;
78885;SDS011;68269;52.514;5.722;2023-07-16T12:08:15;7.80;;;1.27;;
78885;SDS011;68269;52.514;5.722;2023-07-16T12:10:44;4.68;;;1.08;;
78885;SDS011;68269;52.514;5.722;2023-07-16T12:13:13;6.25;;;1.20;;
78885;SDS011;68269;52.514;5.722;2023-07-16T12:15:43;6.38;;;0.93;;
78885;SDS011;68269;52.514;5.722;2023-07-16T12:18:14;4.18;;;0.95;;
78885;SDS011;68269;52.514;5.722;2023-07-16T12:20:44;6.90;;;1.00;;
78885;SDS011;68269;52.514;5.722;2023-07-16T12:23:13;5.60;;;1.15;;
78885;SDS011;68269;52.514;5.722;2023-07-16T12:25:42;6.53;;;1.02;;
78885;SDS011;68269;52.514;5.722;2023-07-16T12:28:11;4.35;;;1.10;;
78885;SDS011;68269;52.514;5.722;2023-07-16T12:30:41;5.40;;;1.17;;
78885;SDS011;68269;52.514;5.722;2023-07-16T12:33:10;5.82;;;1.08;;
78885;SDS011;68269;52.514;5.722;2023-07-16T12:35:42;7.72;;;1.30;;
78885;SDS011;68269;52.514;5.722;2023-07-16T12:38:13;5.82;;;1.13;;
78885;SDS011;68269;52.514;5.722;2023-07-16T12:40:42;7.57;;;1.42;;
78885;SDS011;68269;52.514;5.722;2023-07-16T12:43:11;7.50;;;1.02;;
78885;SDS011;68269;52.514;5.722;2023-07-16T12:45:40;4.75;;;1.10;;
78885;SDS011;68269;52.514;5.722;2023-07-16T12:48:10;7.43;;;1.17;;
78885;SDS011;68269;52.514;5.722;2023-07-16T12:50:42;6.18;;;1.42;;
78885;SDS011;68269;52.514;5.722;2023-07-16T12:53:11;8.18;;;1.55;;
78885;SDS011;68269;52.514;5.722;2023-07-16T12:55:40;4.88;;;1.42;;
78885;SDS011;68269;52.514;5.722;2023-07-16T12:58:10;6.90;;;1.40;;
78885;SDS011;68269;52.514;5.722;2023-07-16T13:00:39;7.10;;;1.10;;
78885;SDS011;68269;52.514;5.722;2023-07-16T13:03:08;4.93;;;0.98;;
78885;SDS011;68269;52.514;5.722;2023-07-16T13:05:44;5.15;;;1.13;;
78885;SDS011;68269;52.514;5.722;2023-07-16T13:08:14;6.78;;;1.25;;
78885;SDS011;68269;52.514;5.722;2023-07-16T13:10:43;5.10;;;1.02;;
78885;SDS011;68269;52.514;5.722;2023-07-16T13:13:13;6.57;;;1.10;;
78885;SDS011;68269;52.514;5.722;2023-07-16T13:15:42;6.07;;;1.38;;
78885;SDS011;68269;52.514;5.722;2023-07-16T13:18:11;8.35;;;1.17;;
78885;SDS011;68269;52.514;5.722;2023-07-16T13:20:40;8.07;;;2.03;;
78885;SDS011;68269;52.514;5.722;2023-07-16T13:23:12;8.25;;;1.27;;
78885;SDS011;68269;52.514;5.722;2023-07-16T13:25:42;6.85;;;1.10;;
78885;SDS011;68269;52.514;5.722;2023-07-16T13:28:11;6.07;;;1.40;;
78885;SDS011;68269;52.514;5.722;2023-07-16T13:30:40;4.05;;;1.05;;
78885;SDS011;68269;52.514;5.722;2023-07-16T13:33:09;6.50;;;1.17;;
78885;SDS011;68269;52.514;5.722;2023-07-16T13:35:39;6.13;;;1.17;;
78885;SDS011;68269;52.514;5.722;2023-07-16T13:38:08;6.65;;;1.10;;
78885;SDS011;68269;52.514;5.722;2023-07-16T13:40:40;5.03;;;1.10;;
78885;SDS011;68269;52.514;5.722;2023-07-16T13:43:09;6.00;;;1.27;;
78885;SDS011;68269;52.514;5.722;2023-07-16T13:45:38;7.55;;;1.10;;
78885;SDS011;68269;52.514;5.722;2023-07-16T13:48:08;5.97;;;1.15;;
78885;SDS011;68269;52.514;5.722;2023-07-16T13:50:37;6.22;;;1.05;;
78885;SDS011;68269;52.514;5.722;2023-07-16T13:53:06;4.60;;;1.00;;
78885;SDS011;68269;52.514;5.722;2023-07-16T13:55:36;5.75;;;1.25;;
78885;SDS011;68269;52.514;5.722;2023-07-16T13:58:08;6.00;;;1.00;;
78885;SDS011;68269;52.514;5.722;2023-07-16T14:00:37;4.72;;;1.10;;
78885;SDS011;68269;52.514;5.722;2023-07-16T14:03:06;6.88;;;1.35;;
78885;SDS011;68269;52.514;5.722;2023-07-16T14:05:35;4.82;;;0.95;;
78885;SDS011;68269;52.514;5.722;2023-07-16T14:08:06;5.53;;;0.88;;
78885;SDS011;68269;52.514;5.722;2023-07-16T14:10:35;6.72;;;1.10;;
78885;SDS011;68269;52.514;5.722;2023-07-16T14:13:04;6.15;;;0.85;;
78885;SDS011;68269;52.514;5.722;2023-07-16T14:15:37;7.53;;;1.17;;
78885;SDS011;68269;52.514;5.722;2023-07-16T14:18:06;5.47;;;1.10;;
78885;SDS011;68269;52.514;5.722;2023-07-16T14:20:35;7.00;;;1.33;;
78885;SDS011;68269;52.514;5.722;2023-07-16T14:23:04;7.05;;;1.27;;
78885;SDS011;68269;52.514;5.722;2023-07-16T14:25:34;4.68;;;0.82;;
78885;SDS011;68269;52.514;5.722;2023-07-16T14:28:03;9.00;;;1.75;;
78885;SDS011;68269;52.514;5.722;2023-07-16T14:30:35;5.80;;;0.95;;
78885;SDS011;68269;52.514;5.722;2023-07-16T14:33:05;4.13;;;0.85;;
78885;SDS011;68269;52.514;5.722;2023-07-16T14:35:34;8.85;;;0.93;;
78885;SDS011;68269;52.514;5.722;2023-07-16T14:38:03;3.13;;;0.63;;
78885;SDS011;68269;52.514;5.722;2023-07-16T14:40:33;4.97;;;0.95;;
78885;SDS011;68269;52.514;5.722;2023-07-16T14:43:03;4.70;;;0.90;;
78885;SDS011;68269;52.514;5.722;2023-07-16T14:45:36;7.45;;;1.20;;
78885;SDS011;68269;52.514;5.722;2023-07-16T14:48:05;6.25;;;0.88;;
78885;SDS011;68269;52.514;5.722;2023-07-16T14:50:35;3.35;;;0.68;;
78885;SDS011;68269;52.514;5.722;2023-07-16T14:53:04;6.25;;;0.65;;
78885;SDS011;68269;52.514;5.722;2023-07-16T14:55:34;1.85;;;0.50;;
78885;SDS011;68269;52.514;5.722;2023-07-16T14:58:03;8.57;;;0.82;;
78885;SDS011;68269;52.514;5.722;2023-07-16T15:00:33;4.68;;;0.90;;
78885;SDS011;68269;52.514;5.722;2023-07-16T15:03:04;3.13;;;0.60;;
78885;SDS011;68269;52.514;5.722;2023-07-16T15:05:34;7.60;;;1.10;;
78885;SDS011;68269;52.514;5.722;2023-07-16T15:08:03;7.10;;;1.17;;
78885;SDS011;68269;52.514;5.722;2023-07-16T15:10:33;6.70;;;0.80;;